sensor_id;sensor_type;location;lat;lon;timestamp;temperature;humidity
34147;DHT22;20423;49.448;9.056;2023-04-29T00:02:18;11.20;99.90
34147;DHT22;20423;49.448;9.056;2023-04-29T00:04:44;11.20;99.90
34147;DHT22;20423;49.448;9.056;2023-04-29T00:07:09;11.20;99.90
34147;DHT22;20423;49.448;9.056;2023-04-29T00:09:39;11.10;99.90
34147;DHT22;20423;49.448;9.056;2023-04-29T00:12:05;11.10;99.90
34147;DHT22;20423;49.448;9.056;2023-04-29T00:14:31;11.20;99.90
34147;DHT22;20423;49.448;9.056;2023-04-29T00:16:56;11.10;99.90
34147;DHT22;20423;49.448;9.056;2023-04-29T00:19:22;11.20;99.90
34147;DHT22;20423;49.448;9.056;2023-04-29T00:21:48;11.20;99.90
34147;DHT22;20423;49.448;9.056;2023-04-29T00:24:14;11.10;99.90
34147;DHT22;20423;49.448;9.056;2023-04-29T00:26:39;11.20;99.90
34147;DHT22;20423;49.448;9.056;2023-04-29T00:29:05;11.20;99.90
34147;DHT22;20423;49.448;9.056;2023-04-29T00:31:31;11.20;99.90
34147;DHT22;20423;49.448;9.056;2023-04-29T00:33:57;11.10;99.90
34147;DHT22;20423;49.448;9.056;2023-04-29T00:36:23;11.00;99.90
34147;DHT22;20423;49.448;9.056;2023-04-29T00:38:49;11.00;99.90
34147;DHT22;20423;49.448;9.056;2023-04-29T00:41:15;10.80;99.90
34147;DHT22;20423;49.448;9.056;2023-04-29T00:43:41;10.70;99.90
34147;DHT22;20423;49.448;9.056;2023-04-29T00:46:07;10.60;99.90
34147;DHT22;20423;49.448;9.056;2023-04-29T00:48:33;10.60;99.90
34147;DHT22;20423;49.448;9.056;2023-04-29T00:50:59;10.40;99.90
34147;DHT22;20423;49.448;9.056;2023-04-29T00:53:25;10.20;99.90
34147;DHT22;20423;49.448;9.056;2023-04-29T00:55:57;10.10;99.90
34147;DHT22;20423;49.448;9.056;2023-04-29T00:58:23;10.10;99.90
34147;DHT22;20423;49.448;9.056;2023-04-29T01:01:02;10.10;99.90
34147;DHT22;20423;49.448;9.056;2023-04-29T01:03:31;10.10;99.90
34147;DHT22;20423;49.448;9.056;2023-04-29T01:06:12;9.90;99.90
34147;DHT22;20423;49.448;9.056;2023-04-29T01:12:01;9.70;99.90
34147;DHT22;20423;49.448;9.056;2023-04-29T01:14:31;9.60;99.90
34147;DHT22;20423;49.448;9.056;2023-04-29T01:17:05;9.60;99.90
34147;DHT22;20423;49.448;9.056;2023-04-29T01:19:54;9.50;99.90
34147;DHT22;20423;49.448;9.056;2023-04-29T01:22:21;9.40;99.90
34147;DHT22;20423;49.448;9.056;2023-04-29T01:24:48;9.30;99.90
34147;DHT22;20423;49.448;9.056;2023-04-29T01:27:34;9.20;99.90
34147;DHT22;20423;49.448;9.056;2023-04-29T01:33:14;9.20;99.90
34147;DHT22;20423;49.448;9.056;2023-04-29T01:38:54;9.20;99.90
34147;DHT22;20423;49.448;9.056;2023-04-29T01:44:19;9.10;99.90
34147;DHT22;20423;49.448;9.056;2023-04-29T01:46:50;8.90;99.90
34147;DHT22;20423;49.448;9.056;2023-04-29T01:49:24;8.80;99.90
34147;DHT22;20423;49.448;9.056;2023-04-29T01:51:50;8.80;99.90
34147;DHT22;20423;49.448;9.056;2023-04-29T01:54:16;8.70;99.90
34147;DHT22;20423;49.448;9.056;2023-04-29T01:56:43;8.50;99.90
34147;DHT22;20423;49.448;9.056;2023-04-29T01:59:29;8.30;99.90
34147;DHT22;20423;49.448;9.056;2023-04-29T02:02:31;8.30;99.90
34147;DHT22;20423;49.448;9.056;2023-04-29T02:05:06;8.10;99.90
34147;DHT22;20423;49.448;9.056;2023-04-29T02:07:32;8.00;99.90
34147;DHT22;20423;49.448;9.056;2023-04-29T02:10:16;8.00;99.90
34147;DHT22;20423;49.448;9.056;2023-04-29T02:12:44;7.90;99.90
34147;DHT22;20423;49.448;9.056;2023-04-29T02:15:11;7.90;99.90
34147;DHT22;20423;49.448;9.056;2023-04-29T02:17:36;8.00;99.90
34147;DHT22;20423;49.448;9.056;2023-04-29T02:20:28;8.10;99.90
34147;DHT22;20423;49.448;9.056;2023-04-29T02:22:55;8.30;99.90
34147;DHT22;20423;49.448;9.056;2023-04-29T02:25:21;8.50;99.90
34147;DHT22;20423;49.448;9.056;2023-04-29T02:27:47;8.70;99.90
34147;DHT22;20423;49.448;9.056;2023-04-29T02:30:13;8.80;99.90
34147;DHT22;20423;49.448;9.056;2023-04-29T02:32:39;8.90;99.90
34147;DHT22;20423;49.448;9.056;2023-04-29T02:35:06;9.00;99.90
34147;DHT22;20423;49.448;9.056;2023-04-29T02:37:33;9.00;99.90
34147;DHT22;20423;49.448;9.056;2023-04-29T02:39:59;9.00;99.90
34147;DHT22;20423;49.448;9.056;2023-04-29T02:42:24;9.10;99.90
34147;DHT22;20423;49.448;9.056;2023-04-29T02:44:50;9.20;99.90
34147;DHT22;20423;49.448;9.056;2023-04-29T02:47:15;9.30;99.90
34147;DHT22;20423;49.448;9.056;2023-04-29T02:49:41;9.30;99.90
34147;DHT22;20423;49.448;9.056;2023-04-29T02:52:07;9.40;99.90
34147;DHT22;20423;49.448;9.056;2023-04-29T02:54:34;9.50;99.90
34147;DHT22;20423;49.448;9.056;2023-04-29T02:57:01;9.50;99.90
34147;DHT22;20423;49.448;9.056;2023-04-29T02:59:27;9.70;99.90
34147;DHT22;20423;49.448;9.056;2023-04-29T03:01:52;9.80;99.90
34147;DHT22;20423;49.448;9.056;2023-04-29T03:04:19;9.90;99.90
34147;DHT22;20423;49.448;9.056;2023-04-29T03:06:44;10.00;99.90
34147;DHT22;20423;49.448;9.056;2023-04-29T03:09:11;10.10;99.90
34147;DHT22;20423;49.448;9.056;2023-04-29T03:11:38;10.10;99.90
34147;DHT22;20423;49.448;9.056;2023-04-29T03:14:04;10.20;99.90
34147;DHT22;20423;49.448;9.056;2023-04-29T03:16:30;10.20;99.90
34147;DHT22;20423;49.448;9.056;2023-04-29T03:18:59;10.20;99.90
34147;DHT22;20423;49.448;9.056;2023-04-29T03:21:24;10.10;99.90
34147;DHT22;20423;49.448;9.056;2023-04-29T03:23:52;10.10;99.90
34147;DHT22;20423;49.448;9.056;2023-04-29T03:26:23;10.10;99.90
34147;DHT22;20423;49.448;9.056;2023-04-29T03:28:50;10.00;99.90
34147;DHT22;20423;49.448;9.056;2023-04-29T03:31:16;9.90;99.90
34147;DHT22;20423;49.448;9.056;2023-04-29T03:33:42;9.80;99.90
34147;DHT22;20423;49.448;9.056;2023-04-29T03:36:08;9.70;99.90
34147;DHT22;20423;49.448;9.056;2023-04-29T03:38:38;9.70;99.90
34147;DHT22;20423;49.448;9.056;2023-04-29T03:41:04;9.50;99.90
34147;DHT22;20423;49.448;9.056;2023-04-29T03:43:30;9.40;99.90
34147;DHT22;20423;49.448;9.056;2023-04-29T03:45:56;9.30;99.90
34147;DHT22;20423;49.448;9.056;2023-04-29T03:48:23;9.20;99.90
34147;DHT22;20423;49.448;9.056;2023-04-29T03:50:50;9.20;99.90
34147;DHT22;20423;49.448;9.056;2023-04-29T03:53:16;9.20;99.90
34147;DHT22;20423;49.448;9.056;2023-04-29T03:55:43;9.20;99.90
34147;DHT22;20423;49.448;9.056;2023-04-29T03:58:09;9.20;99.90
34147;DHT22;20423;49.448;9.056;2023-04-29T04:00:35;9.20;99.90
34147;DHT22;20423;49.448;9.056;2023-04-29T04:03:04;9.20;99.90
34147;DHT22;20423;49.448;9.056;2023-04-29T04:05:30;9.20;99.90
34147;DHT22;20423;49.448;9.056;2023-04-29T04:08:02;9.20;99.90
34147;DHT22;20423;49.448;9.056;2023-04-29T04:10:50;9.20;99.90
34147;DHT22;20423;49.448;9.056;2023-04-29T04:13:31;9.20;99.90
34147;DHT22;20423;49.448;9.056;2023-04-29T04:15:57;9.20;99.90
34147;DHT22;20423;49.448;9.056;2023-04-29T04:18:23;9.30;99.90
34147;DHT22;20423;49.448;9.056;2023-04-29T04:21:26;9.30;99.90
34147;DHT22;20423;49.448;9.056;2023-04-29T04:24:01;9.30;99.90
34147;DHT22;20423;49.448;9.056;2023-04-29T04:26:29;9.30;99.90
34147;DHT22;20423;49.448;9.056;2023-04-29T04:29:04;9.30;99.90
34147;DHT22;20423;49.448;9.056;2023-04-29T04:31:52;9.30;99.90
34147;DHT22;20423;49.448;9.056;2023-04-29T04:34:19;9.30;99.90
34147;DHT22;20423;49.448;9.056;2023-04-29T04:36:47;9.40;99.90
34147;DHT22;20423;49.448;9.056;2023-04-29T04:39:13;9.40;99.90
34147;DHT22;20423;49.448;9.056;2023-04-29T04:41:38;9.40;99.90
34147;DHT22;20423;49.448;9.056;2023-04-29T04:44:04;9.40;99.90
34147;DHT22;20423;49.448;9.056;2023-04-29T04:46:40;9.40;99.90
34147;DHT22;20423;49.448;9.056;2023-04-29T04:49:17;9.40;99.90
34147;DHT22;20423;49.448;9.056;2023-04-29T04:51:51;9.40;99.90
34147;DHT22;20423;49.448;9.056;2023-04-29T04:54:16;9.50;99.90
34147;DHT22;20423;49.448;9.056;2023-04-29T04:56:42;9.50;99.90
34147;DHT22;20423;49.448;9.056;2023-04-29T04:59:08;9.40;99.90
34147;DHT22;20423;49.448;9.056;2023-04-29T05:01:36;9.50;99.90
34147;DHT22;20423;49.448;9.056;2023-04-29T05:04:01;9.50;99.90
34147;DHT22;20423;49.448;9.056;2023-04-29T05:06:29;9.50;99.90
34147;DHT22;20423;49.448;9.056;2023-04-29T05:08:55;9.50;99.90
34147;DHT22;20423;49.448;9.056;2023-04-29T05:11:22;9.60;99.90
34147;DHT22;20423;49.448;9.056;2023-04-29T05:14:06;9.60;99.90
34147;DHT22;20423;49.448;9.056;2023-04-29T05:16:32;9.70;99.90
34147;DHT22;20423;49.448;9.056;2023-04-29T05:18:58;9.70;99.90
34147;DHT22;20423;49.448;9.056;2023-04-29T05:21:28;9.70;99.90
34147;DHT22;20423;49.448;9.056;2023-04-29T05:23:54;9.70;99.90
34147;DHT22;20423;49.448;9.056;2023-04-29T05:26:20;9.70;99.90
34147;DHT22;20423;49.448;9.056;2023-04-29T05:28:46;9.70;99.90
34147;DHT22;20423;49.448;9.056;2023-04-29T05:31:13;9.60;99.90
34147;DHT22;20423;49.448;9.056;2023-04-29T05:37:20;9.50;99.90
34147;DHT22;20423;49.448;9.056;2023-04-29T05:40:06;9.60;99.90
34147;DHT22;20423;49.448;9.056;2023-04-29T05:42:33;9.60;99.90
34147;DHT22;20423;49.448;9.056;2023-04-29T05:45:00;9.60;99.90
34147;DHT22;20423;49.448;9.056;2023-04-29T05:47:25;9.60;99.90
34147;DHT22;20423;49.448;9.056;2023-04-29T05:49:51;9.60;99.90
34147;DHT22;20423;49.448;9.056;2023-04-29T05:52:17;9.60;99.90
34147;DHT22;20423;49.448;9.056;2023-04-29T05:54:46;9.60;99.90
34147;DHT22;20423;49.448;9.056;2023-04-29T05:57:11;9.60;99.90
34147;DHT22;20423;49.448;9.056;2023-04-29T05:59:39;9.70;99.90
34147;DHT22;20423;49.448;9.056;2023-04-29T06:02:05;9.80;99.90
34147;DHT22;20423;49.448;9.056;2023-04-29T06:04:32;9.80;99.90
34147;DHT22;20423;49.448;9.056;2023-04-29T06:07:17;9.70;99.90
34147;DHT22;20423;49.448;9.056;2023-04-29T06:10:09;9.70;99.90
34147;DHT22;20423;49.448;9.056;2023-04-29T06:12:35;9.70;99.90
34147;DHT22;20423;49.448;9.056;2023-04-29T06:15:01;9.70;99.90
34147;DHT22;20423;49.448;9.056;2023-04-29T06:17:27;9.70;99.90
34147;DHT22;20423;49.448;9.056;2023-04-29T06:19:54;9.70;99.90
34147;DHT22;20423;49.448;9.056;2023-04-29T06:22:22;9.90;99.90
34147;DHT22;20423;49.448;9.056;2023-04-29T06:24:50;10.00;99.90
34147;DHT22;20423;49.448;9.056;2023-04-29T06:27:25;10.20;99.90
34147;DHT22;20423;49.448;9.056;2023-04-29T06:29:51;10.10;99.90
34147;DHT22;20423;49.448;9.056;2023-04-29T06:32:17;10.30;99.90
34147;DHT22;20423;49.448;9.056;2023-04-29T06:34:45;10.30;99.90
34147;DHT22;20423;49.448;9.056;2023-04-29T06:37:37;10.20;99.90
34147;DHT22;20423;49.448;9.056;2023-04-29T06:40:16;10.40;99.90
34147;DHT22;20423;49.448;9.056;2023-04-29T06:43:01;10.40;99.90
34147;DHT22;20423;49.448;9.056;2023-04-29T06:45:45;10.40;99.90
34147;DHT22;20423;49.448;9.056;2023-04-29T06:48:37;10.50;99.90
34147;DHT22;20423;49.448;9.056;2023-04-29T06:51:03;10.60;99.90
34147;DHT22;20423;49.448;9.056;2023-04-29T06:53:29;10.70;99.90
34147;DHT22;20423;49.448;9.056;2023-04-29T06:55:55;10.80;99.90
34147;DHT22;20423;49.448;9.056;2023-04-29T06:58:21;10.90;99.90
34147;DHT22;20423;49.448;9.056;2023-04-29T07:00:48;11.00;99.90
34147;DHT22;20423;49.448;9.056;2023-04-29T07:03:14;11.00;99.90
34147;DHT22;20423;49.448;9.056;2023-04-29T07:05:40;11.00;99.90
34147;DHT22;20423;49.448;9.056;2023-04-29T07:08:08;11.00;99.90
34147;DHT22;20423;49.448;9.056;2023-04-29T07:10:34;11.00;99.90
34147;DHT22;20423;49.448;9.056;2023-04-29T07:13:00;11.00;99.90
34147;DHT22;20423;49.448;9.056;2023-04-29T07:15:26;11.30;99.90
34147;DHT22;20423;49.448;9.056;2023-04-29T07:17:52;11.40;99.90
34147;DHT22;20423;49.448;9.056;2023-04-29T07:20:18;11.70;99.90
34147;DHT22;20423;49.448;9.056;2023-04-29T07:22:45;12.00;99.90
34147;DHT22;20423;49.448;9.056;2023-04-29T07:25:11;12.20;99.90
34147;DHT22;20423;49.448;9.056;2023-04-29T07:27:37;12.40;99.90
34147;DHT22;20423;49.448;9.056;2023-04-29T07:30:04;12.70;99.90
34147;DHT22;20423;49.448;9.056;2023-04-29T07:32:30;12.90;99.90
34147;DHT22;20423;49.448;9.056;2023-04-29T07:34:57;13.00;99.90
34147;DHT22;20423;49.448;9.056;2023-04-29T07:37:24;13.10;99.90
34147;DHT22;20423;49.448;9.056;2023-04-29T07:39:50;13.50;99.90
34147;DHT22;20423;49.448;9.056;2023-04-29T07:42:16;13.70;99.90
34147;DHT22;20423;49.448;9.056;2023-04-29T07:44:42;13.80;99.90
34147;DHT22;20423;49.448;9.056;2023-04-29T07:47:13;13.90;99.90
34147;DHT22;20423;49.448;9.056;2023-04-29T07:49:39;14.00;99.90
34147;DHT22;20423;49.448;9.056;2023-04-29T07:52:06;13.90;99.90
34147;DHT22;20423;49.448;9.056;2023-04-29T07:54:35;14.00;99.90
34147;DHT22;20423;49.448;9.056;2023-04-29T07:57:01;13.50;99.90
34147;DHT22;20423;49.448;9.056;2023-04-29T07:59:29;13.40;99.90
34147;DHT22;20423;49.448;9.056;2023-04-29T08:01:55;13.30;99.90
34147;DHT22;20423;49.448;9.056;2023-04-29T08:04:22;13.10;99.90
34147;DHT22;20423;49.448;9.056;2023-04-29T08:06:56;13.00;99.90
34147;DHT22;20423;49.448;9.056;2023-04-29T08:09:22;12.80;99.90
34147;DHT22;20423;49.448;9.056;2023-04-29T08:11:47;12.80;99.90
34147;DHT22;20423;49.448;9.056;2023-04-29T08:14:13;12.70;99.90
34147;DHT22;20423;49.448;9.056;2023-04-29T08:16:39;12.80;99.90
34147;DHT22;20423;49.448;9.056;2023-04-29T08:19:05;12.90;99.90
34147;DHT22;20423;49.448;9.056;2023-04-29T08:21:31;12.70;99.90
34147;DHT22;20423;49.448;9.056;2023-04-29T08:23:57;12.80;99.90
34147;DHT22;20423;49.448;9.056;2023-04-29T08:26:23;12.90;99.90
34147;DHT22;20423;49.448;9.056;2023-04-29T08:28:49;13.00;99.90
34147;DHT22;20423;49.448;9.056;2023-04-29T08:31:19;13.10;99.90
34147;DHT22;20423;49.448;9.056;2023-04-29T08:33:46;13.00;99.90
34147;DHT22;20423;49.448;9.056;2023-04-29T08:36:18;12.90;99.90
34147;DHT22;20423;49.448;9.056;2023-04-29T08:38:43;13.20;99.90
34147;DHT22;20423;49.448;9.056;2023-04-29T08:41:09;13.60;99.90
34147;DHT22;20423;49.448;9.056;2023-04-29T08:43:36;14.30;99.90
34147;DHT22;20423;49.448;9.056;2023-04-29T08:46:02;14.80;99.90
34147;DHT22;20423;49.448;9.056;2023-04-29T08:48:29;14.60;99.90
34147;DHT22;20423;49.448;9.056;2023-04-29T08:50:55;14.40;99.90
34147;DHT22;20423;49.448;9.056;2023-04-29T08:53:24;14.00;99.90
34147;DHT22;20423;49.448;9.056;2023-04-29T08:55:50;13.70;99.90
34147;DHT22;20423;49.448;9.056;2023-04-29T08:58:20;13.50;99.90
34147;DHT22;20423;49.448;9.056;2023-04-29T09:00:46;13.30;99.90
34147;DHT22;20423;49.448;9.056;2023-04-29T09:05:54;12.70;99.90
34147;DHT22;20423;49.448;9.056;2023-04-29T09:08:23;12.30;99.90
34147;DHT22;20423;49.448;9.056;2023-04-29T09:10:50;11.90;99.90
34147;DHT22;20423;49.448;9.056;2023-04-29T09:15:49;11.70;99.90
34147;DHT22;20423;49.448;9.056;2023-04-29T09:23:43;11.70;99.90
34147;DHT22;20423;49.448;9.056;2023-04-29T09:26:10;11.70;99.90
34147;DHT22;20423;49.448;9.056;2023-04-29T09:28:35;11.70;99.90
34147;DHT22;20423;49.448;9.056;2023-04-29T09:31:02;11.60;99.90
34147;DHT22;20423;49.448;9.056;2023-04-29T09:33:49;11.70;99.90
34147;DHT22;20423;49.448;9.056;2023-04-29T09:39:08;11.00;99.90
34147;DHT22;20423;49.448;9.056;2023-04-29T09:44:20;11.20;99.90
34147;DHT22;20423;49.448;9.056;2023-04-29T09:47:02;11.70;99.90
34147;DHT22;20423;49.448;9.056;2023-04-29T09:49:33;12.30;99.90
34147;DHT22;20423;49.448;9.056;2023-04-29T09:52:05;13.00;99.90
34147;DHT22;20423;49.448;9.056;2023-04-29T09:54:36;13.70;99.90
34147;DHT22;20423;49.448;9.056;2023-04-29T09:57:03;14.10;99.90
34147;DHT22;20423;49.448;9.056;2023-04-29T09:59:36;14.20;99.90
34147;DHT22;20423;49.448;9.056;2023-04-29T10:02:21;14.50;99.90
34147;DHT22;20423;49.448;9.056;2023-04-29T10:04:53;14.70;99.90
34147;DHT22;20423;49.448;9.056;2023-04-29T10:07:21;15.30;99.90
34147;DHT22;20423;49.448;9.056;2023-04-29T10:09:47;15.00;99.90
34147;DHT22;20423;49.448;9.056;2023-04-29T10:12:17;14.80;99.90
34147;DHT22;20423;49.448;9.056;2023-04-29T10:17:46;14.50;99.90
34147;DHT22;20423;49.448;9.056;2023-04-29T10:20:16;14.60;99.90
34147;DHT22;20423;49.448;9.056;2023-04-29T10:22:47;14.60;99.90
34147;DHT22;20423;49.448;9.056;2023-04-29T10:25:19;14.70;99.90
34147;DHT22;20423;49.448;9.056;2023-04-29T10:27:46;14.90;99.90
34147;DHT22;20423;49.448;9.056;2023-04-29T10:30:17;14.90;99.90
34147;DHT22;20423;49.448;9.056;2023-04-29T10:32:44;14.80;99.90
34147;DHT22;20423;49.448;9.056;2023-04-29T10:35:12;15.00;99.90
34147;DHT22;20423;49.448;9.056;2023-04-29T10:37:40;15.30;99.90
34147;DHT22;20423;49.448;9.056;2023-04-29T10:40:09;15.00;99.90
34147;DHT22;20423;49.448;9.056;2023-04-29T10:42:43;14.80;99.90
34147;DHT22;20423;49.448;9.056;2023-04-29T10:45:28;14.80;99.90
34147;DHT22;20423;49.448;9.056;2023-04-29T10:50:32;15.00;99.90
34147;DHT22;20423;49.448;9.056;2023-04-29T10:53:01;14.70;99.90
34147;DHT22;20423;49.448;9.056;2023-04-29T10:55:26;14.60;99.90
34147;DHT22;20423;49.448;9.056;2023-04-29T10:57:53;14.20;99.90
34147;DHT22;20423;49.448;9.056;2023-04-29T11:00:25;14.00;99.90
34147;DHT22;20423;49.448;9.056;2023-04-29T11:02:53;14.10;99.90
34147;DHT22;20423;49.448;9.056;2023-04-29T11:05:32;14.50;99.90
34147;DHT22;20423;49.448;9.056;2023-04-29T11:08:11;15.10;99.90
34147;DHT22;20423;49.448;9.056;2023-04-29T11:10:40;15.50;99.90
34147;DHT22;20423;49.448;9.056;2023-04-29T11:13:26;16.00;99.90
34147;DHT22;20423;49.448;9.056;2023-04-29T11:19:04;16.70;99.90
34147;DHT22;20423;49.448;9.056;2023-04-29T11:21:33;17.10;99.90
34147;DHT22;20423;49.448;9.056;2023-04-29T11:23:59;18.10;99.90
34147;DHT22;20423;49.448;9.056;2023-04-29T11:26:26;17.80;99.90
34147;DHT22;20423;49.448;9.056;2023-04-29T11:28:51;17.00;99.90
34147;DHT22;20423;49.448;9.056;2023-04-29T11:31:18;16.10;99.90
34147;DHT22;20423;49.448;9.056;2023-04-29T11:33:45;15.60;99.90
34147;DHT22;20423;49.448;9.056;2023-04-29T11:36:11;15.50;99.90
34147;DHT22;20423;49.448;9.056;2023-04-29T11:38:39;15.20;99.90
34147;DHT22;20423;49.448;9.056;2023-04-29T11:41:09;14.60;99.90
34147;DHT22;20423;49.448;9.056;2023-04-29T11:43:35;14.10;99.90
34147;DHT22;20423;49.448;9.056;2023-04-29T11:46:13;14.10;99.90
34147;DHT22;20423;49.448;9.056;2023-04-29T11:48:49;14.20;99.90
34147;DHT22;20423;49.448;9.056;2023-04-29T11:51:16;14.30;99.90
34147;DHT22;20423;49.448;9.056;2023-04-29T11:53:43;14.20;99.90
34147;DHT22;20423;49.448;9.056;2023-04-29T11:56:10;14.00;99.90
34147;DHT22;20423;49.448;9.056;2023-04-29T11:58:36;13.70;99.90
34147;DHT22;20423;49.448;9.056;2023-04-29T12:01:03;13.60;99.90
34147;DHT22;20423;49.448;9.056;2023-04-29T12:03:31;13.80;99.90
34147;DHT22;20423;49.448;9.056;2023-04-29T12:05:58;14.20;99.90
34147;DHT22;20423;49.448;9.056;2023-04-29T12:08:25;14.50;99.90
34147;DHT22;20423;49.448;9.056;2023-04-29T12:10:53;14.70;99.90
34147;DHT22;20423;49.448;9.056;2023-04-29T12:13:19;15.10;99.90
34147;DHT22;20423;49.448;9.056;2023-04-29T12:15:48;15.00;99.90
34147;DHT22;20423;49.448;9.056;2023-04-29T12:18:16;14.80;99.90
34147;DHT22;20423;49.448;9.056;2023-04-29T12:20:44;14.70;99.90
34147;DHT22;20423;49.448;9.056;2023-04-29T12:25:36;13.90;99.90
34147;DHT22;20423;49.448;9.056;2023-04-29T12:28:02;13.40;99.90
34147;DHT22;20423;49.448;9.056;2023-04-29T12:30:33;13.40;99.90
34147;DHT22;20423;49.448;9.056;2023-04-29T12:33:01;13.40;99.90
34147;DHT22;20423;49.448;9.056;2023-04-29T12:35:27;13.70;99.90
34147;DHT22;20423;49.448;9.056;2023-04-29T12:37:52;13.70;99.90
34147;DHT22;20423;49.448;9.056;2023-04-29T12:40:18;13.80;99.90
34147;DHT22;20423;49.448;9.056;2023-04-29T12:42:45;13.80;99.90
34147;DHT22;20423;49.448;9.056;2023-04-29T12:45:31;13.60;99.90
34147;DHT22;20423;49.448;9.056;2023-04-29T12:47:58;13.20;99.90
34147;DHT22;20423;49.448;9.056;2023-04-29T12:50:32;13.10;99.90
34147;DHT22;20423;49.448;9.056;2023-04-29T12:52:59;13.10;99.90
34147;DHT22;20423;49.448;9.056;2023-04-29T12:55:24;13.00;99.90
34147;DHT22;20423;49.448;9.056;2023-04-29T12:57:50;12.80;99.90
34147;DHT22;20423;49.448;9.056;2023-04-29T13:00:16;12.80;99.90
34147;DHT22;20423;49.448;9.056;2023-04-29T13:02:45;12.60;99.90
34147;DHT22;20423;49.448;9.056;2023-04-29T13:05:11;12.50;99.90
34147;DHT22;20423;49.448;9.056;2023-04-29T13:07:37;12.40;99.90
34147;DHT22;20423;49.448;9.056;2023-04-29T13:10:04;12.30;99.90
34147;DHT22;20423;49.448;9.056;2023-04-29T13:12:40;12.20;99.90
34147;DHT22;20423;49.448;9.056;2023-04-29T13:15:06;12.30;99.90
34147;DHT22;20423;49.448;9.056;2023-04-29T13:17:34;12.40;99.90
34147;DHT22;20423;49.448;9.056;2023-04-29T13:20:05;12.40;99.90
34147;DHT22;20423;49.448;9.056;2023-04-29T13:22:31;12.50;99.90
34147;DHT22;20423;49.448;9.056;2023-04-29T13:24:57;12.50;99.90
34147;DHT22;20423;49.448;9.056;2023-04-29T13:27:23;12.30;99.90
34147;DHT22;20423;49.448;9.056;2023-04-29T13:29:49;12.20;99.90
34147;DHT22;20423;49.448;9.056;2023-04-29T13:32:14;12.10;99.90
34147;DHT22;20423;49.448;9.056;2023-04-29T13:34:41;12.00;99.90
34147;DHT22;20423;49.448;9.056;2023-04-29T13:37:11;12.00;99.90
34147;DHT22;20423;49.448;9.056;2023-04-29T13:39:37;12.00;99.90
34147;DHT22;20423;49.448;9.056;2023-04-29T13:42:02;12.20;99.90
34147;DHT22;20423;49.448;9.056;2023-04-29T13:44:28;12.30;99.90
34147;DHT22;20423;49.448;9.056;2023-04-29T13:46:55;12.40;99.90
34147;DHT22;20423;49.448;9.056;2023-04-29T13:49:21;12.40;99.90
34147;DHT22;20423;49.448;9.056;2023-04-29T13:51:47;12.30;99.90
34147;DHT22;20423;49.448;9.056;2023-04-29T13:54:12;12.40;99.90
34147;DHT22;20423;49.448;9.056;2023-04-29T13:56:38;12.30;99.90
34147;DHT22;20423;49.448;9.056;2023-04-29T13:59:04;12.30;99.90
34147;DHT22;20423;49.448;9.056;2023-04-29T14:01:30;12.20;99.90
34147;DHT22;20423;49.448;9.056;2023-04-29T14:03:55;12.20;99.90
34147;DHT22;20423;49.448;9.056;2023-04-29T14:06:21;12.20;99.90
34147;DHT22;20423;49.448;9.056;2023-04-29T14:09:05;12.20;99.90
34147;DHT22;20423;49.448;9.056;2023-04-29T14:11:31;12.10;99.90
34147;DHT22;20423;49.448;9.056;2023-04-29T14:14:01;12.00;99.90
34147;DHT22;20423;49.448;9.056;2023-04-29T14:16:27;12.10;99.90
34147;DHT22;20423;49.448;9.056;2023-04-29T14:18:54;12.10;99.90
34147;DHT22;20423;49.448;9.056;2023-04-29T14:21:20;12.20;99.90
34147;DHT22;20423;49.448;9.056;2023-04-29T14:23:49;12.30;99.90
34147;DHT22;20423;49.448;9.056;2023-04-29T14:26:15;12.50;99.90
34147;DHT22;20423;49.448;9.056;2023-04-29T14:28:41;12.60;99.90
34147;DHT22;20423;49.448;9.056;2023-04-29T14:31:06;12.60;99.90
34147;DHT22;20423;49.448;9.056;2023-04-29T14:33:32;12.80;99.90
34147;DHT22;20423;49.448;9.056;2023-04-29T14:35:58;12.90;99.90
34147;DHT22;20423;49.448;9.056;2023-04-29T14:38:25;12.90;99.90
34147;DHT22;20423;49.448;9.056;2023-04-29T14:40:51;13.00;99.90
34147;DHT22;20423;49.448;9.056;2023-04-29T14:43:17;13.20;99.90
34147;DHT22;20423;49.448;9.056;2023-04-29T14:45:43;13.50;99.90
34147;DHT22;20423;49.448;9.056;2023-04-29T14:48:09;13.80;99.90
34147;DHT22;20423;49.448;9.056;2023-04-29T14:50:35;13.90;99.90
34147;DHT22;20423;49.448;9.056;2023-04-29T14:53:01;14.20;99.90
34147;DHT22;20423;49.448;9.056;2023-04-29T14:55:27;14.60;99.90
34147;DHT22;20423;49.448;9.056;2023-04-29T14:57:52;15.20;99.90
34147;DHT22;20423;49.448;9.056;2023-04-29T15:00:18;15.70;99.90
34147;DHT22;20423;49.448;9.056;2023-04-29T15:02:44;15.70;99.90
34147;DHT22;20423;49.448;9.056;2023-04-29T15:05:10;15.50;99.90
34147;DHT22;20423;49.448;9.056;2023-04-29T15:07:36;14.90;99.90
34147;DHT22;20423;49.448;9.056;2023-04-29T15:10:01;14.60;99.90
34147;DHT22;20423;49.448;9.056;2023-04-29T15:12:28;14.30;99.90
34147;DHT22;20423;49.448;9.056;2023-04-29T15:14:53;14.00;99.90
34147;DHT22;20423;49.448;9.056;2023-04-29T15:17:19;14.00;99.90
34147;DHT22;20423;49.448;9.056;2023-04-29T15:20:19;14.20;99.90
34147;DHT22;20423;49.448;9.056;2023-04-29T15:22:45;14.70;99.90
34147;DHT22;20423;49.448;9.056;2023-04-29T15:25:12;14.90;99.90
34147;DHT22;20423;49.448;9.056;2023-04-29T15:27:37;14.90;99.90
34147;DHT22;20423;49.448;9.056;2023-04-29T15:30:04;14.90;99.90
34147;DHT22;20423;49.448;9.056;2023-04-29T15:32:30;14.80;99.90
34147;DHT22;20423;49.448;9.056;2023-04-29T15:34:59;14.80;99.90
34147;DHT22;20423;49.448;9.056;2023-04-29T15:37:26;14.70;99.90
34147;DHT22;20423;49.448;9.056;2023-04-29T15:39:53;14.40;99.90
34147;DHT22;20423;49.448;9.056;2023-04-29T15:42:18;14.30;99.90
34147;DHT22;20423;49.448;9.056;2023-04-29T15:44:44;14.10;99.90
34147;DHT22;20423;49.448;9.056;2023-04-29T15:47:10;13.90;99.90
34147;DHT22;20423;49.448;9.056;2023-04-29T15:49:36;13.70;99.90
34147;DHT22;20423;49.448;9.056;2023-04-29T15:52:03;13.60;99.90
34147;DHT22;20423;49.448;9.056;2023-04-29T15:54:28;13.40;99.90
34147;DHT22;20423;49.448;9.056;2023-04-29T15:56:55;13.10;99.90
34147;DHT22;20423;49.448;9.056;2023-04-29T15:59:21;13.00;99.90
34147;DHT22;20423;49.448;9.056;2023-04-29T16:01:47;13.00;99.90
34147;DHT22;20423;49.448;9.056;2023-04-29T16:04:12;12.90;99.90
34147;DHT22;20423;49.448;9.056;2023-04-29T16:06:38;12.80;99.90
34147;DHT22;20423;49.448;9.056;2023-04-29T16:09:04;12.70;99.90
34147;DHT22;20423;49.448;9.056;2023-04-29T16:11:30;12.60;99.90
34147;DHT22;20423;49.448;9.056;2023-04-29T16:13:57;12.40;99.90
34147;DHT22;20423;49.448;9.056;2023-04-29T16:16:22;12.20;99.90
34147;DHT22;20423;49.448;9.056;2023-04-29T16:18:50;12.00;99.90
34147;DHT22;20423;49.448;9.056;2023-04-29T16:21:15;11.90;99.90
34147;DHT22;20423;49.448;9.056;2023-04-29T16:23:42;11.80;99.90
34147;DHT22;20423;49.448;9.056;2023-04-29T16:26:08;11.80;99.90
34147;DHT22;20423;49.448;9.056;2023-04-29T16:28:34;11.80;99.90